sensor_id;sensor_type;location;lat;lon;timestamp;temperature;humidity
22202;DHT22;11266;51.522;6.302;2023-10-09T00:00:11;13.90;99.90
22202;DHT22;11266;51.522;6.302;2023-10-09T00:01:19;13.90;99.90
22202;DHT22;11266;51.522;6.302;2023-10-09T00:02:08;13.90;99.90
22202;DHT22;11266;51.522;6.302;2023-10-09T00:02:55;13.90;99.90
22202;DHT22;11266;51.522;6.302;2023-10-09T00:03:41;13.90;99.90
22202;DHT22;11266;51.522;6.302;2023-10-09T00:04:27;13.90;99.90
22202;DHT22;11266;51.522;6.302;2023-10-09T00:05:14;13.90;99.90
22202;DHT22;11266;51.522;6.302;2023-10-09T00:06:08;14.00;99.90
22202;DHT22;11266;51.522;6.302;2023-10-09T00:06:58;14.00;99.90
22202;DHT22;11266;51.522;6.302;2023-10-09T00:07:45;14.00;99.90
22202;DHT22;11266;51.522;6.302;2023-10-09T00:08:31;14.00;99.90
22202;DHT22;11266;51.522;6.302;2023-10-09T00:09:17;14.00;99.90
22202;DHT22;11266;51.522;6.302;2023-10-09T00:10:06;14.10;99.90
22202;DHT22;11266;51.522;6.302;2023-10-09T00:11:00;14.00;99.90
22202;DHT22;11266;51.522;6.302;2023-10-09T00:12:05;14.00;99.90
22202;DHT22;11266;51.522;6.302;2023-10-09T00:12:55;14.00;99.90
22202;DHT22;11266;51.522;6.302;2023-10-09T00:13:42;14.00;99.90
22202;DHT22;11266;51.522;6.302;2023-10-09T00:14:42;14.00;99.90
22202;DHT22;11266;51.522;6.302;2023-10-09T00:15:33;14.00;99.90
22202;DHT22;11266;51.522;6.302;2023-10-09T00:16:21;14.00;99.90
22202;DHT22;11266;51.522;6.302;2023-10-09T00:17:18;14.00;99.90
22202;DHT22;11266;51.522;6.302;2023-10-09T00:18:04;14.00;99.90
22202;DHT22;11266;51.522;6.302;2023-10-09T00:18:57;14.00;99.90
22202;DHT22;11266;51.522;6.302;2023-10-09T00:19:46;14.10;99.90
22202;DHT22;11266;51.522;6.302;2023-10-09T00:20:40;14.00;99.90
22202;DHT22;11266;51.522;6.302;2023-10-09T00:21:28;14.10;99.90
22202;DHT22;11266;51.522;6.302;2023-10-09T00:22:20;14.10;99.90
22202;DHT22;11266;51.522;6.302;2023-10-09T00:23:11;14.10;99.90
22202;DHT22;11266;51.522;6.302;2023-10-09T00:24:01;14.10;99.90
22202;DHT22;11266;51.522;6.302;2023-10-09T00:24:55;14.00;99.90
22202;DHT22;11266;51.522;6.302;2023-10-09T00:25:56;14.10;99.90
22202;DHT22;11266;51.522;6.302;2023-10-09T00:26:57;14.10;99.90
22202;DHT22;11266;51.522;6.302;2023-10-09T00:28:04;14.10;99.90
22202;DHT22;11266;51.522;6.302;2023-10-09T00:29:04;14.20;99.90
22202;DHT22;11266;51.522;6.302;2023-10-09T00:29:50;14.20;99.90
22202;DHT22;11266;51.522;6.302;2023-10-09T00:30:43;14.20;99.90
22202;DHT22;11266;51.522;6.302;2023-10-09T00:31:28;14.20;99.90
22202;DHT22;11266;51.522;6.302;2023-10-09T00:32:18;14.20;99.90
22202;DHT22;11266;51.522;6.302;2023-10-09T00:33:08;14.20;99.90
22202;DHT22;11266;51.522;6.302;2023-10-09T00:33:55;14.20;99.90
22202;DHT22;11266;51.522;6.302;2023-10-09T00:34:40;14.10;99.90
22202;DHT22;11266;51.522;6.302;2023-10-09T00:35:27;14.10;99.90
22202;DHT22;11266;51.522;6.302;2023-10-09T00:36:22;14.10;99.90
22202;DHT22;11266;51.522;6.302;2023-10-09T00:37:13;14.10;99.90
22202;DHT22;11266;51.522;6.302;2023-10-09T00:38:05;14.10;99.90
22202;DHT22;11266;51.522;6.302;2023-10-09T00:39:12;14.10;99.90
22202;DHT22;11266;51.522;6.302;2023-10-09T00:40:06;14.10;99.90
22202;DHT22;11266;51.522;6.302;2023-10-09T00:41:05;14.10;99.90
22202;DHT22;11266;51.522;6.302;2023-10-09T00:41:53;14.20;99.90
22202;DHT22;11266;51.522;6.302;2023-10-09T00:42:39;14.10;99.90
22202;DHT22;11266;51.522;6.302;2023-10-09T00:43:25;14.10;99.90
22202;DHT22;11266;51.522;6.302;2023-10-09T00:44:14;14.10;99.90
22202;DHT22;11266;51.522;6.302;2023-10-09T00:45:00;14.20;99.90
22202;DHT22;11266;51.522;6.302;2023-10-09T00:45:50;14.20;99.90
22202;DHT22;11266;51.522;6.302;2023-10-09T00:46:36;14.20;99.90
22202;DHT22;11266;51.522;6.302;2023-10-09T00:47:27;14.20;99.90
22202;DHT22;11266;51.522;6.302;2023-10-09T00:48:19;14.20;99.90
22202;DHT22;11266;51.522;6.302;2023-10-09T00:49:16;14.20;99.90
22202;DHT22;11266;51.522;6.302;2023-10-09T00:50:08;14.20;99.90
22202;DHT22;11266;51.522;6.302;2023-10-09T00:51:09;14.20;99.90
22202;DHT22;11266;51.522;6.302;2023-10-09T00:52:04;14.20;99.90
22202;DHT22;11266;51.522;6.302;2023-10-09T00:52:54;14.10;99.90
22202;DHT22;11266;51.522;6.302;2023-10-09T00:53:50;14.20;99.90
22202;DHT22;11266;51.522;6.302;2023-10-09T00:54:38;14.20;99.90
22202;DHT22;11266;51.522;6.302;2023-10-09T00:55:27;14.20;99.90
22202;DHT22;11266;51.522;6.302;2023-10-09T00:56:23;14.20;99.90
22202;DHT22;11266;51.522;6.302;2023-10-09T00:57:11;14.20;99.90
22202;DHT22;11266;51.522;6.302;2023-10-09T00:57:59;14.20;99.90
22202;DHT22;11266;51.522;6.302;2023-10-09T00:58:52;14.20;99.90
22202;DHT22;11266;51.522;6.302;2023-10-09T00:59:42;14.20;99.90
22202;DHT22;11266;51.522;6.302;2023-10-09T01:00:28;14.10;99.90
22202;DHT22;11266;51.522;6.302;2023-10-09T01:01:17;14.20;99.90
22202;DHT22;11266;51.522;6.302;2023-10-09T01:02:02;14.20;99.90
22202;DHT22;11266;51.522;6.302;2023-10-09T01:02:51;14.20;99.90
22202;DHT22;11266;51.522;6.302;2023-10-09T01:03:46;14.20;99.90
22202;DHT22;11266;51.522;6.302;2023-10-09T01:04:36;14.20;99.90
22202;DHT22;11266;51.522;6.302;2023-10-09T01:05:29;14.30;99.90
22202;DHT22;11266;51.522;6.302;2023-10-09T01:06:14;14.30;99.90
22202;DHT22;11266;51.522;6.302;2023-10-09T01:07:02;14.20;99.90
22202;DHT22;11266;51.522;6.302;2023-10-09T01:08:11;14.20;99.90
22202;DHT22;11266;51.522;6.302;2023-10-09T01:09:03;14.20;99.90
22202;DHT22;11266;51.522;6.302;2023-10-09T01:09:54;14.30;99.90
22202;DHT22;11266;51.522;6.302;2023-10-09T01:10:47;14.30;99.90
22202;DHT22;11266;51.522;6.302;2023-10-09T01:11:36;14.30;99.90
22202;DHT22;11266;51.522;6.302;2023-10-09T01:12:33;14.30;99.90
22202;DHT22;11266;51.522;6.302;2023-10-09T01:13:18;14.30;99.90
22202;DHT22;11266;51.522;6.302;2023-10-09T01:14:04;14.30;99.90
22202;DHT22;11266;51.522;6.302;2023-10-09T01:14:52;14.30;99.90
22202;DHT22;11266;51.522;6.302;2023-10-09T01:15:40;14.30;99.90
22202;DHT22;11266;51.522;6.302;2023-10-09T01:16:29;14.40;99.90
22202;DHT22;11266;51.522;6.302;2023-10-09T01:17:16;14.30;99.90
22202;DHT22;11266;51.522;6.302;2023-10-09T01:18:14;14.40;99.90
22202;DHT22;11266;51.522;6.302;2023-10-09T01:19:00;14.40;99.90
22202;DHT22;11266;51.522;6.302;2023-10-09T01:19:51;14.40;99.90
22202;DHT22;11266;51.522;6.302;2023-10-09T01:20:41;14.40;99.90
22202;DHT22;11266;51.522;6.302;2023-10-09T01:21:27;14.40;99.90
22202;DHT22;11266;51.522;6.302;2023-10-09T01:22:13;14.40;99.90
22202;DHT22;11266;51.522;6.302;2023-10-09T01:23:01;14.40;99.90
22202;DHT22;11266;51.522;6.302;2023-10-09T01:23:47;14.40;99.90
22202;DHT22;11266;51.522;6.302;2023-10-09T01:24:44;14.40;99.90
22202;DHT22;11266;51.522;6.302;2023-10-09T01:25:33;14.40;99.90
22202;DHT22;11266;51.522;6.302;2023-10-09T01:26:38;14.40;99.90
22202;DHT22;11266;51.522;6.302;2023-10-09T01:27:29;14.40;99.90
22202;DHT22;11266;51.522;6.302;2023-10-09T01:28:17;14.40;99.90
22202;DHT22;11266;51.522;6.302;2023-10-09T01:29:03;14.40;99.90
22202;DHT22;11266;51.522;6.302;2023-10-09T01:29:49;14.40;99.90
22202;DHT22;11266;51.522;6.302;2023-10-09T01:30:37;14.40;99.90
22202;DHT22;11266;51.522;6.302;2023-10-09T01:31:27;14.40;99.90
22202;DHT22;11266;51.522;6.302;2023-10-09T01:32:13;14.40;99.90
22202;DHT22;11266;51.522;6.302;2023-10-09T01:33:12;14.40;99.90
22202;DHT22;11266;51.522;6.302;2023-10-09T01:34:07;14.40;99.90
22202;DHT22;11266;51.522;6.302;2023-10-09T01:34:55;14.40;99.90
22202;DHT22;11266;51.522;6.302;2023-10-09T01:35:43;14.40;99.90
22202;DHT22;11266;51.522;6.302;2023-10-09T01:36:32;14.50;99.90
22202;DHT22;11266;51.522;6.302;2023-10-09T01:37:20;14.50;99.90
22202;DHT22;11266;51.522;6.302;2023-10-09T01:38:07;14.50;99.90
22202;DHT22;11266;51.522;6.302;2023-10-09T01:39:01;14.50;99.90
22202;DHT22;11266;51.522;6.302;2023-10-09T01:40:06;14.50;99.90
22202;DHT22;11266;51.522;6.302;2023-10-09T01:41:21;14.50;99.90
22202;DHT22;11266;51.522;6.302;2023-10-09T01:42:07;14.50;99.90
22202;DHT22;11266;51.522;6.302;2023-10-09T01:42:53;14.50;99.90
22202;DHT22;11266;51.522;6.302;2023-10-09T01:43:38;14.50;99.90
22202;DHT22;11266;51.522;6.302;2023-10-09T01:44:25;14.50;99.90
22202;DHT22;11266;51.522;6.302;2023-10-09T01:45:20;14.50;99.90
22202;DHT22;11266;51.522;6.302;2023-10-09T01:46:05;14.50;99.90
22202;DHT22;11266;51.522;6.302;2023-10-09T01:46:51;14.50;99.90
22202;DHT22;11266;51.522;6.302;2023-10-09T01:47:39;14.40;99.90
22202;DHT22;11266;51.522;6.302;2023-10-09T01:48:25;14.40;99.90
22202;DHT22;11266;51.522;6.302;2023-10-09T01:49:11;14.40;99.90
22202;DHT22;11266;51.522;6.302;2023-10-09T01:50:04;14.40;99.90
22202;DHT22;11266;51.522;6.302;2023-10-09T01:50:50;14.50;99.90
22202;DHT22;11266;51.522;6.302;2023-10-09T01:51:36;14.50;99.90
22202;DHT22;11266;51.522;6.302;2023-10-09T01:52:23;14.50;99.90
22202;DHT22;11266;51.522;6.302;2023-10-09T01:53:09;14.60;99.90
22202;DHT22;11266;51.522;6.302;2023-10-09T01:53:54;14.50;99.90
22202;DHT22;11266;51.522;6.302;2023-10-09T01:54:45;14.50;99.90
22202;DHT22;11266;51.522;6.302;2023-10-09T01:55:34;14.50;99.90
22202;DHT22;11266;51.522;6.302;2023-10-09T01:56:23;14.50;99.90
22202;DHT22;11266;51.522;6.302;2023-10-09T01:57:09;14.50;99.90
22202;DHT22;11266;51.522;6.302;2023-10-09T01:57:57;14.50;99.90
22202;DHT22;11266;51.522;6.302;2023-10-09T01:58:50;14.50;99.90
22202;DHT22;11266;51.522;6.302;2023-10-09T01:59:36;14.50;99.90
22202;DHT22;11266;51.522;6.302;2023-10-09T02:00:29;14.50;99.90
22202;DHT22;11266;51.522;6.302;2023-10-09T02:01:14;14.50;99.90
22202;DHT22;11266;51.522;6.302;2023-10-09T02:02:01;14.50;99.90
22202;DHT22;11266;51.522;6.302;2023-10-09T02:02:57;14.50;99.90
22202;DHT22;11266;51.522;6.302;2023-10-09T02:03:48;14.50;99.90
22202;DHT22;11266;51.522;6.302;2023-10-09T02:04:37;14.50;99.90
22202;DHT22;11266;51.522;6.302;2023-10-09T02:05:25;14.50;99.90
22202;DHT22;11266;51.522;6.302;2023-10-09T02:06:11;14.50;99.90
22202;DHT22;11266;51.522;6.302;2023-10-09T02:07:17;14.50;99.90
22202;DHT22;11266;51.522;6.302;2023-10-09T02:08:08;14.50;99.90
22202;DHT22;11266;51.522;6.302;2023-10-09T02:08:55;14.60;99.90
22202;DHT22;11266;51.522;6.302;2023-10-09T02:09:41;14.60;99.90
22202;DHT22;11266;51.522;6.302;2023-10-09T02:10:32;14.60;99.90
22202;DHT22;11266;51.522;6.302;2023-10-09T02:11:18;14.60;99.90
22202;DHT22;11266;51.522;6.302;2023-10-09T02:12:09;14.60;99.90
22202;DHT22;11266;51.522;6.302;2023-10-09T02:13:02;14.70;99.90
22202;DHT22;11266;51.522;6.302;2023-10-09T02:13:56;14.70;99.90
22202;DHT22;11266;51.522;6.302;2023-10-09T02:14:42;14.70;99.90
22202;DHT22;11266;51.522;6.302;2023-10-09T02:15:30;14.70;99.90
22202;DHT22;11266;51.522;6.302;2023-10-09T02:16:27;14.70;99.90
22202;DHT22;11266;51.522;6.302;2023-10-09T02:17:13;14.70;99.90
22202;DHT22;11266;51.522;6.302;2023-10-09T02:18:05;14.70;99.90
22202;DHT22;11266;51.522;6.302;2023-10-09T02:19:02;14.70;99.90
22202;DHT22;11266;51.522;6.302;2023-10-09T02:19:53;14.70;99.90
22202;DHT22;11266;51.522;6.302;2023-10-09T02:20:38;14.70;99.90
22202;DHT22;11266;51.522;6.302;2023-10-09T02:21:25;14.70;99.90
22202;DHT22;11266;51.522;6.302;2023-10-09T02:22:25;14.70;99.90
22202;DHT22;11266;51.522;6.302;2023-10-09T02:23:12;14.70;99.90
22202;DHT22;11266;51.522;6.302;2023-10-09T02:24:10;14.80;99.90
22202;DHT22;11266;51.522;6.302;2023-10-09T02:25:12;14.80;99.90
22202;DHT22;11266;51.522;6.302;2023-10-09T02:25:58;14.80;99.90
22202;DHT22;11266;51.522;6.302;2023-10-09T02:26:47;14.80;99.90
22202;DHT22;11266;51.522;6.302;2023-10-09T02:27:38;14.80;99.90
22202;DHT22;11266;51.522;6.302;2023-10-09T02:28:32;14.80;99.90
22202;DHT22;11266;51.522;6.302;2023-10-09T02:29:18;14.80;99.90
22202;DHT22;11266;51.522;6.302;2023-10-09T02:30:09;14.80;99.90
22202;DHT22;11266;51.522;6.302;2023-10-09T02:31:11;14.70;99.90
22202;DHT22;11266;51.522;6.302;2023-10-09T02:31:58;14.70;99.90
22202;DHT22;11266;51.522;6.302;2023-10-09T02:32:58;14.70;99.90
22202;DHT22;11266;51.522;6.302;2023-10-09T02:33:54;14.80;99.90
22202;DHT22;11266;51.522;6.302;2023-10-09T02:34:41;14.70;99.90
22202;DHT22;11266;51.522;6.302;2023-10-09T02:35:31;14.80;99.90
22202;DHT22;11266;51.522;6.302;2023-10-09T02:36:22;14.80;99.90
22202;DHT22;11266;51.522;6.302;2023-10-09T02:37:09;14.80;99.90
22202;DHT22;11266;51.522;6.302;2023-10-09T02:37:58;14.80;99.90
22202;DHT22;11266;51.522;6.302;2023-10-09T02:38:44;14.80;99.90
22202;DHT22;11266;51.522;6.302;2023-10-09T02:39:34;14.80;99.90
22202;DHT22;11266;51.522;6.302;2023-10-09T02:40:28;14.80;99.90
22202;DHT22;11266;51.522;6.302;2023-10-09T02:41:25;14.80;99.90
22202;DHT22;11266;51.522;6.302;2023-10-09T02:42:14;14.80;99.90
22202;DHT22;11266;51.522;6.302;2023-10-09T02:42:59;14.80;99.90
22202;DHT22;11266;51.522;6.302;2023-10-09T02:43:45;14.80;99.90
22202;DHT22;11266;51.522;6.302;2023-10-09T02:44:35;14.80;99.90
22202;DHT22;11266;51.522;6.302;2023-10-09T02:45:25;14.80;99.90
22202;DHT22;11266;51.522;6.302;2023-10-09T02:46:16;14.80;99.90
22202;DHT22;11266;51.522;6.302;2023-10-09T02:47:06;14.80;99.90
22202;DHT22;11266;51.522;6.302;2023-10-09T02:47:57;14.80;99.90
22202;DHT22;11266;51.522;6.302;2023-10-09T02:48:48;14.80;99.90
22202;DHT22;11266;51.522;6.302;2023-10-09T02:49:38;14.80;99.90
22202;DHT22;11266;51.522;6.302;2023-10-09T02:50:25;14.80;99.90
22202;DHT22;11266;51.522;6.302;2023-10-09T02:51:13;14.80;99.90
22202;DHT22;11266;51.522;6.302;2023-10-09T02:52:11;14.80;99.90
22202;DHT22;11266;51.522;6.302;2023-10-09T02:52:56;14.80;99.90
22202;DHT22;11266;51.522;6.302;2023-10-09T02:53:46;14.80;99.90
22202;DHT22;11266;51.522;6.302;2023-10-09T02:54:35;14.80;99.90
22202;DHT22;11266;51.522;6.302;2023-10-09T02:55:21;14.80;99.90
22202;DHT22;11266;51.522;6.302;2023-10-09T02:56:11;14.80;99.90
22202;DHT22;11266;51.522;6.302;2023-10-09T02:57:02;14.80;99.90
22202;DHT22;11266;51.522;6.302;2023-10-09T02:57:55;14.80;99.90
22202;DHT22;11266;51.522;6.302;2023-10-09T02:59:06;14.80;99.90
22202;DHT22;11266;51.522;6.302;2023-10-09T02:59:51;14.90;99.90
22202;DHT22;11266;51.522;6.302;2023-10-09T03:00:37;14.90;99.90
22202;DHT22;11266;51.522;6.302;2023-10-09T03:01:23;14.80;99.90
22202;DHT22;11266;51.522;6.302;2023-10-09T03:02:08;14.90;99.90
22202;DHT22;11266;51.522;6.302;2023-10-09T03:02:54;14.90;99.90
22202;DHT22;11266;51.522;6.302;2023-10-09T03:03:41;14.90;99.90
22202;DHT22;11266;51.522;6.302;2023-10-09T03:04:31;14.90;99.90
22202;DHT22;11266;51.522;6.302;2023-10-09T03:05:16;14.90;99.90
22202;DHT22;11266;51.522;6.302;2023-10-09T03:06:02;14.90;99.90
22202;DHT22;11266;51.522;6.302;2023-10-09T03:06:56;15.00;99.90
22202;DHT22;11266;51.522;6.302;2023-10-09T03:07:42;14.90;99.90
22202;DHT22;11266;51.522;6.302;2023-10-09T03:08:29;15.00;99.90
22202;DHT22;11266;51.522;6.302;2023-10-09T03:09:18;15.00;99.90
22202;DHT22;11266;51.522;6.302;2023-10-09T03:10:11;14.90;99.90
22202;DHT22;11266;51.522;6.302;2023-10-09T03:10:57;15.00;99.90
22202;DHT22;11266;51.522;6.302;2023-10-09T03:11:48;14.90;99.90
22202;DHT22;11266;51.522;6.302;2023-10-09T03:12:38;15.00;99.90
22202;DHT22;11266;51.522;6.302;2023-10-09T03:13:24;14.90;99.90
22202;DHT22;11266;51.522;6.302;2023-10-09T03:14:10;14.90;99.90
22202;DHT22;11266;51.522;6.302;2023-10-09T03:14:55;14.90;99.90
22202;DHT22;11266;51.522;6.302;2023-10-09T03:15:44;14.90;99.90
22202;DHT22;11266;51.522;6.302;2023-10-09T03:16:31;15.00;99.90
22202;DHT22;11266;51.522;6.302;2023-10-09T03:17:16;15.00;99.90
22202;DHT22;11266;51.522;6.302;2023-10-09T03:18:02;15.00;99.90
22202;DHT22;11266;51.522;6.302;2023-10-09T03:18:51;15.00;99.90
22202;DHT22;11266;51.522;6.302;2023-10-09T03:19:38;15.00;99.90
22202;DHT22;11266;51.522;6.302;2023-10-09T03:20:23;15.00;99.90
22202;DHT22;11266;51.522;6.302;2023-10-09T03:21:09;15.00;99.90
22202;DHT22;11266;51.522;6.302;2023-10-09T03:21:58;15.10;99.90
22202;DHT22;11266;51.522;6.302;2023-10-09T03:22:44;15.10;99.90
22202;DHT22;11266;51.522;6.302;2023-10-09T03:23:30;15.10;99.90
22202;DHT22;11266;51.522;6.302;2023-10-09T03:24:16;15.10;99.90
22202;DHT22;11266;51.522;6.302;2023-10-09T03:25:01;15.10;99.90
22202;DHT22;11266;51.522;6.302;2023-10-09T03:25:47;15.10;99.90
22202;DHT22;11266;51.522;6.302;2023-10-09T03:26:36;15.10;99.90
22202;DHT22;11266;51.522;6.302;2023-10-09T03:27:22;15.10;99.90
22202;DHT22;11266;51.522;6.302;2023-10-09T03:28:08;15.10;99.90
22202;DHT22;11266;51.522;6.302;2023-10-09T03:28:53;15.10;99.90
22202;DHT22;11266;51.522;6.302;2023-10-09T03:29:39;15.10;99.90
22202;DHT22;11266;51.522;6.302;2023-10-09T03:30:25;15.10;99.90
22202;DHT22;11266;51.522;6.302;2023-10-09T03:31:11;15.10;99.90
22202;DHT22;11266;51.522;6.302;2023-10-09T03:31:57;15.10;99.90
22202;DHT22;11266;51.522;6.302;2023-10-09T03:32:44;15.10;99.90
22202;DHT22;11266;51.522;6.302;2023-10-09T03:33:30;15.10;99.90
22202;DHT22;11266;51.522;6.302;2023-10-09T03:34:18;15.10;99.90
22202;DHT22;11266;51.522;6.302;2023-10-09T03:35:04;15.10;99.90
22202;DHT22;11266;51.522;6.302;2023-10-09T03:35:52;15.10;99.90
22202;DHT22;11266;51.522;6.302;2023-10-09T03:36:37;15.10;99.90
22202;DHT22;11266;51.522;6.302;2023-10-09T03:37:24;15.10;99.90
22202;DHT22;11266;51.522;6.302;2023-10-09T03:38:20;15.10;99.90
22202;DHT22;11266;51.522;6.302;2023-10-09T03:39:06;15.10;99.90
22202;DHT22;11266;51.522;6.302;2023-10-09T03:40:03;15.10;99.90
22202;DHT22;11266;51.522;6.302;2023-10-09T03:40:52;15.10;99.90
22202;DHT22;11266;51.522;6.302;2023-10-09T03:41:38;15.20;99.90
22202;DHT22;11266;51.522;6.302;2023-10-09T03:42:27;15.10;99.90
22202;DHT22;11266;51.522;6.302;2023-10-09T03:43:14;15.20;99.90
22202;DHT22;11266;51.522;6.302;2023-10-09T03:44:00;15.10;99.90
22202;DHT22;11266;51.522;6.302;2023-10-09T03:44:46;15.10;99.90
22202;DHT22;11266;51.522;6.302;2023-10-09T03:45:40;15.10;99.90
22202;DHT22;11266;51.522;6.302;2023-10-09T03:46:37;15.10;99.90
22202;DHT22;11266;51.522;6.302;2023-10-09T03:47:23;15.20;99.90
22202;DHT22;11266;51.522;6.302;2023-10-09T03:48:09;15.20;99.90
22202;DHT22;11266;51.522;6.302;2023-10-09T03:49:01;15.20;99.90
22202;DHT22;11266;51.522;6.302;2023-10-09T03:49:50;15.20;99.90
22202;DHT22;11266;51.522;6.302;2023-10-09T03:50:39;15.20;99.90
22202;DHT22;11266;51.522;6.302;2023-10-09T03:51:29;15.20;99.90
22202;DHT22;11266;51.522;6.302;2023-10-09T03:52:15;15.30;99.90
22202;DHT22;11266;51.522;6.302;2023-10-09T03:53:04;15.30;99.90
22202;DHT22;11266;51.522;6.302;2023-10-09T03:53:53;15.30;99.90
22202;DHT22;11266;51.522;6.302;2023-10-09T03:54:39;15.30;99.90
22202;DHT22;11266;51.522;6.302;2023-10-09T03:55:25;15.30;99.90
22202;DHT22;11266;51.522;6.302;2023-10-09T03:56:14;15.30;99.90
22202;DHT22;11266;51.522;6.302;2023-10-09T03:57:01;15.30;99.90
22202;DHT22;11266;51.522;6.302;2023-10-09T03:57:47;15.30;99.90
22202;DHT22;11266;51.522;6.302;2023-10-09T03:58:33;15.30;99.90
22202;DHT22;11266;51.522;6.302;2023-10-09T03:59:20;15.30;99.90
22202;DHT22;11266;51.522;6.302;2023-10-09T04:00:07;15.30;99.90
22202;DHT22;11266;51.522;6.302;2023-10-09T04:00:59;15.30;99.90
22202;DHT22;11266;51.522;6.302;2023-10-09T04:01:45;15.30;99.90
22202;DHT22;11266;51.522;6.302;2023-10-09T04:02:32;15.40;99.90
22202;DHT22;11266;51.522;6.302;2023-10-09T04:03:18;15.30;99.90
22202;DHT22;11266;51.522;6.302;2023-10-09T04:04:06;15.30;99.90
22202;DHT22;11266;51.522;6.302;2023-10-09T04:04:59;15.30;99.90
22202;DHT22;11266;51.522;6.302;2023-10-09T04:05:45;15.30;99.90
22202;DHT22;11266;51.522;6.302;2023-10-09T04:06:31;15.30;99.90
22202;DHT22;11266;51.522;6.302;2023-10-09T04:07:20;15.30;99.90
22202;DHT22;11266;51.522;6.302;2023-10-09T04:08:06;15.20;99.90
22202;DHT22;11266;51.522;6.302;2023-10-09T04:09:11;15.20;99.90
22202;DHT22;11266;51.522;6.302;2023-10-09T04:10:06;15.20;99.90
22202;DHT22;11266;51.522;6.302;2023-10-09T04:11:25;15.20;99.90
22202;DHT22;11266;51.522;6.302;2023-10-09T04:12:11;15.20;99.90
22202;DHT22;11266;51.522;6.302;2023-10-09T04:12:56;15.20;99.90
22202;DHT22;11266;51.522;6.302;2023-10-09T04:13:45;15.20;99.90
22202;DHT22;11266;51.522;6.302;2023-10-09T04:14:35;15.20;99.90
22202;DHT22;11266;51.522;6.302;2023-10-09T04:15:21;15.20;99.90
22202;DHT22;11266;51.522;6.302;2023-10-09T04:16:08;15.20;99.90
22202;DHT22;11266;51.522;6.302;2023-10-09T04:17:13;15.20;99.90
22202;DHT22;11266;51.522;6.302;2023-10-09T04:18:08;15.30;99.90
22202;DHT22;11266;51.522;6.302;2023-10-09T04:19:01;15.20;99.90
22202;DHT22;11266;51.522;6.302;2023-10-09T04:19:59;15.20;99.90
22202;DHT22;11266;51.522;6.302;2023-10-09T04:21:20;15.30;99.90
22202;DHT22;11266;51.522;6.302;2023-10-09T04:22:19;15.30;99.90
22202;DHT22;11266;51.522;6.302;2023-10-09T04:23:12;15.30;99.90
22202;DHT22;11266;51.522;6.302;2023-10-09T04:24:05;15.30;99.90
22202;DHT22;11266;51.522;6.302;2023-10-09T04:24:57;15.30;99.90
22202;DHT22;11266;51.522;6.302;2023-10-09T04:25:43;15.30;99.90
22202;DHT22;11266;51.522;6.302;2023-10-09T04:26:30;15.30;99.90
22202;DHT22;11266;51.522;6.302;2023-10-09T04:27:20;15.20;99.90
22202;DHT22;11266;51.522;6.302;2023-10-09T04:28:12;15.30;99.90
22202;DHT22;11266;51.522;6.302;2023-10-09T04:29:07;15.30;99.90
22202;DHT22;11266;51.522;6.302;2023-10-09T04:29:56;15.30;99.90
22202;DHT22;11266;51.522;6.302;2023-10-09T04:30:42;15.30;99.90
22202;DHT22;11266;51.522;6.302;2023-10-09T04:31:40;15.30;99.90
22202;DHT22;11266;51.522;6.302;2023-10-09T04:32:26;15.30;99.90
22202;DHT22;11266;51.522;6.302;2023-10-09T04:33:12;15.30;99.90
22202;DHT22;11266;51.522;6.302;2023-10-09T04:34:21;15.30;99.90
22202;DHT22;11266;51.522;6.302;2023-10-09T04:35:08;15.30;99.90
22202;DHT22;11266;51.522;6.302;2023-10-09T04:36:09;15.30;99.90
22202;DHT22;11266;51.522;6.302;2023-10-09T04:37:04;15.40;99.90
22202;DHT22;11266;51.522;6.302;2023-10-09T04:38:10;15.50;99.90
22202;DHT22;11266;51.522;6.302;2023-10-09T04:38:55;15.40;99.90
22202;DHT22;11266;51.522;6.302;2023-10-09T04:40:00;15.40;99.90
22202;DHT22;11266;51.522;6.302;2023-10-09T04:40:56;15.40;99.90
22202;DHT22;11266;51.522;6.302;2023-10-09T04:41:44;15.40;99.90
22202;DHT22;11266;51.522;6.302;2023-10-09T04:42:30;15.40;99.90
22202;DHT22;11266;51.522;6.302;2023-10-09T04:43:31;15.40;99.90
22202;DHT22;11266;51.522;6.302;2023-10-09T04:44:19;15.40;99.90
22202;DHT22;11266;51.522;6.302;2023-10-09T04:45:08;15.40;99.90
22202;DHT22;11266;51.522;6.302;2023-10-09T04:45:58;15.40;99.90
22202;DHT22;11266;51.522;6.302;2023-10-09T04:46:57;15.40;99.90
22202;DHT22;11266;51.522;6.302;2023-10-09T04:47:55;15.30;99.90
22202;DHT22;11266;51.522;6.302;2023-10-09T04:48:43;15.30;99.90
22202;DHT22;11266;51.522;6.302;2023-10-09T04:49:31;15.30;99.90
22202;DHT22;11266;51.522;6.302;2023-10-09T04:50:31;15.40;99.90
22202;DHT22;11266;51.522;6.302;2023-10-09T04:51:16;15.40;99.90
22202;DHT22;11266;51.522;6.302;2023-10-09T04:52:20;15.40;99.90
22202;DHT22;11266;51.522;6.302;2023-10-09T04:53:14;15.40;99.90
22202;DHT22;11266;51.522;6.302;2023-10-09T04:54:00;15.30;99.90
22202;DHT22;11266;51.522;6.302;2023-10-09T04:54:59;15.30;99.90
22202;DHT22;11266;51.522;6.302;2023-10-09T04:56:10;15.30;99.90
22202;DHT22;11266;51.522;6.302;2023-10-09T04:57:01;15.30;99.90
22202;DHT22;11266;51.522;6.302;2023-10-09T04:57:47;15.30;99.90
22202;DHT22;11266;51.522;6.302;2023-10-09T04:58:46;15.30;99.90
22202;DHT22;11266;51.522;6.302;2023-10-09T04:59:34;15.30;99.90
22202;DHT22;11266;51.522;6.302;2023-10-09T05:00:31;15.30;99.90
22202;DHT22;11266;51.522;6.302;2023-10-09T05:01:16;15.30;99.90
22202;DHT22;11266;51.522;6.302;2023-10-09T05:02:21;15.40;99.90
22202;DHT22;11266;51.522;6.302;2023-10-09T05:03:09;15.40;99.90
22202;DHT22;11266;51.522;6.302;2023-10-09T05:04:14;15.50;99.90
22202;DHT22;11266;51.522;6.302;2023-10-09T05:05:32;15.60;99.90
22202;DHT22;11266;51.522;6.302;2023-10-09T05:06:27;15.50;99.90
22202;DHT22;11266;51.522;6.302;2023-10-09T05:07:28;15.60;99.90
22202;DHT22;11266;51.522;6.302;2023-10-09T05:08:40;15.60;99.90
22202;DHT22;11266;51.522;6.302;2023-10-09T05:09:31;15.60;99.90
22202;DHT22;11266;51.522;6.302;2023-10-09T05:10:37;15.60;99.90
22202;DHT22;11266;51.522;6.302;2023-10-09T05:11:39;15.70;99.90
22202;DHT22;11266;51.522;6.302;2023-10-09T05:12:36;15.70;99.90
22202;DHT22;11266;51.522;6.302;2023-10-09T05:13:35;15.70;99.90
22202;DHT22;11266;51.522;6.302;2023-10-09T05:14:24;15.80;99.90
22202;DHT22;11266;51.522;6.302;2023-10-09T05:15:24;15.70;99.90
22202;DHT22;11266;51.522;6.302;2023-10-09T05:16:16;15.80;99.90
22202;DHT22;11266;51.522;6.302;2023-10-09T05:17:14;15.80;99.90
22202;DHT22;11266;51.522;6.302;2023-10-09T05:18:02;15.70;99.90
22202;DHT22;11266;51.522;6.302;2023-10-09T05:18:56;15.80;99.90
22202;DHT22;11266;51.522;6.302;2023-10-09T05:19:42;15.80;99.90
22202;DHT22;11266;51.522;6.302;2023-10-09T05:20:52;15.90;99.90
22202;DHT22;11266;51.522;6.302;2023-10-09T05:22:03;15.80;99.90